Time;durP1;ratioP1;P1;durP2;ratioP2;P2;SDS_P1;SDS_P2;PMS_P1;PMS_P2;Temp;Humidity;BMP_temperature;BMP_pressure;BME280_temperature;BME280_humidity;BME280_pressure;Samples;Min_cycle;Max_cycle;Signal;HPM_P1;HPM_P2
2021/01/18 00:01:36;;;;;;;30.03;13.93;;;;;;;-0.15;86.31;101307.06;119027;1157;65159;-81
2021/01/18 00:04:03;;;;;;;31.20;14.87;;;;;;;-0.12;85.75;101311.25;119181;1156;65225;-78
2021/01/18 00:06:29;;;;;;;35.83;18.47;;;;;;;-0.07;87.14;101309.20;118861;1155;65130;-81
2021/01/18 00:09:00;;;;;;;38.20;17.40;;;;;;;-0.05;86.05;101313.39;118907;1156;65075;-80
2021/01/18 00:11:28;;;;;;;32.50;14.35;;;;;;;-0.02;86.37;101301.96;118860;1155;65057;-81
2021/01/18 00:13:55;;;;;;;31.17;15.37;;;;;;;0.00;87.18;101305.31;118949;1156;65120;-79
2021/01/18 00:16:22;;;;;;;27.50;13.53;;;;;;;0.02;86.02;101292.16;118918;1157;65133;-79
2021/01/18 00:18:49;;;;;;;28.47;14.60;;;;;;;0.04;86.68;101298.13;118912;1156;65073;-79
2021/01/18 00:21:16;;;;;;;30.57;14.70;;;;;;;0.07;86.04;101292.74;118617;1157;65206;-80
2021/01/18 00:23:43;;;;;;;36.60;18.27;;;;;;;0.06;85.29;101304.92;118948;1156;65159;-81
2021/01/18 00:26:10;;;;;;;24.20;11.95;;;;;;;0.07;85.73;101303.17;118971;1156;65737;-79
2021/01/18 00:28:41;;;;;;;26.63;12.33;;;;;;;0.06;86.17;101309.31;118775;1157;65201;-80
2021/01/18 00:31:08;;;;;;;25.10;12.40;;;;;;;0.06;85.87;101296.27;118818;1157;65137;-80
2021/01/18 00:33:36;;;;;;;29.50;13.50;;;;;;;0.07;86.64;101293.58;118956;1155;65158;-79
2021/01/18 00:36:03;;;;;;;32.80;15.67;;;;;;;0.13;86.97;101289.77;118679;1157;65196;-81
2021/01/18 00:38:29;;;;;;;33.40;16.13;;;;;;;0.18;86.94;101293.75;119007;1157;63756;-80
2021/01/18 00:40:56;;;;;;;32.80;16.03;;;;;;;0.23;86.71;101290.86;118913;1157;65156;-78
2021/01/18 00:43:22;;;;;;;34.15;15.80;;;;;;;0.28;86.67;101293.22;118512;1157;65170;-80
2021/01/18 00:45:48;;;;;;;26.60;13.73;;;;;;;0.31;85.76;101291.23;118985;1157;65111;-80
2021/01/18 00:48:15;;;;;;;31.90;13.05;;;;;;;0.34;86.56;101298.03;118666;1157;65150;-79
2021/01/18 00:50:41;;;;;;;28.20;13.55;;;;;;;0.34;86.04;101292.81;118831;1157;65156;-80
2021/01/18 00:53:07;;;;;;;31.97;15.93;;;;;;;0.34;86.70;101291.06;118708;1157;65133;-81
2021/01/18 00:55:33;;;;;;;37.97;15.63;;;;;;;0.38;85.71;101300.39;118734;1157;65146;-80
2021/01/18 00:58:00;;;;;;;29.12;14.30;;;;;;;0.40;86.25;101298.52;118821;1157;65132;-80
2021/01/18 01:00:28;;;;;;;28.60;12.80;;;;;;;0.40;85.94;101301.13;118755;1157;65234;-79
2021/01/18 01:02:55;;;;;;;26.40;13.00;;;;;;;0.40;86.49;101292.44;118722;1157;65056;-80
2021/01/18 01:05:25;;;;;;;31.00;13.30;;;;;;;0.45;86.70;101299.98;118976;1157;65208;-79
2021/01/18 01:07:56;;;;;;;29.23;13.70;;;;;;;0.46;86.17;101297.28;118576;1157;65073;-81
2021/01/18 01:10:31;;;;;;;34.77;15.73;;;;;;;0.49;85.88;101297.11;118862;1157;65066;-78
2021/01/18 01:13:08;;;;;;;;;;;;;;;0.52;85.75;101298.69;118796;1157;65181;-79
2021/01/18 01:15:35;;;;;;;33.10;14.47;;;;;;;0.55;86.24;101306.31;118958;1156;65172;-79
2021/01/18 01:18:05;;;;;;;27.33;12.87;;;;;;;0.56;86.01;101303.63;119067;1157;65757;-82
2021/01/18 01:20:32;;;;;;;26.20;13.13;;;;;;;0.55;86.72;101303.70;118711;1157;65149;-81
2021/01/18 01:23:00;;;;;;;26.90;12.57;;;;;;;0.54;86.26;101289.82;118707;1157;65161;-78
2021/01/18 01:25:27;;;;;;;31.23;13.13;;;;;;;0.55;86.73;101293.27;118674;1157;66313;-82
2021/01/18 01:27:54;;;;;;;27.30;12.70;;;;;;;0.56;85.99;101298.40;119093;1156;65153;-79
2021/01/18 01:30:22;;;;;;;37.53;15.53;;;;;;;0.61;86.74;101295.50;118615;1157;65262;-80
2021/01/18 01:32:52;;;;;;;31.70;14.37;;;;;;;0.63;86.53;101293.63;119034;1157;65158;-80
2021/01/18 01:35:23;;;;;;;33.77;13.80;;;;;;;0.67;86.58;101291.67;118551;1157;65191;-80
2021/01/18 01:37:50;;;;;;;25.60;12.40;;;;;;;0.68;86.95;101299.42;118948;1157;63849;-79
2021/01/18 01:40:17;;;;;;;24.00;12.15;;;;;;;0.71;87.85;101301.82;118957;1157;66320;-79
2021/01/18 01:42:44;;;;;;;29.05;12.05;;;;;;;0.72;87.78;101303.52;118932;1157;65783;-80
2021/01/18 01:45:13;;;;;;;32.23;13.20;;;;;;;0.77;88.33;101308.45;118557;1157;65115;-78
2021/01/18 01:47:52;;;;;;;33.87;13.93;;;;;;;0.80;88.36;101305.63;118769;1157;65278;-81
2021/01/18 01:50:26;;;;;;;35.70;13.53;;;;;;;0.80;88.41;101301.23;119058;1157;65519;-79
2021/01/18 01:53:00;;;;;;;20.50;8.50;;;;;;;0.85;88.98;101305.33;118526;1157;65254;-79
2021/01/18 01:55:31;;;;;;;22.90;7.70;;;;;;;0.86;90.00;101296.58;118714;1157;65111;-79
2021/01/18 01:58:00;;;;;;;24.47;8.80;;;;;;;0.89;90.85;101302.42;118862;1157;65121;-81
2021/01/18 02:00:36;;;;;;;24.63;10.37;;;;;;;0.97;91.15;101307.17;118871;1157;65128;-81
2021/01/18 02:03:10;;;;;;;28.80;10.50;;;;;;;1.04;92.02;101308.45;118902;1156;65050;-83
2021/01/18 02:05:39;;;;;;;26.40;9.53;;;;;;;1.13;92.69;101307.87;118959;1157;65002;-82
2021/01/18 02:08:12;;;;;;;30.90;11.00;;;;;;;1.25;93.66;101308.01;119221;1156;65111;-80
2021/01/18 02:10:44;;;;;;;17.30;7.37;;;;;;;1.33;93.72;101308.36;119260;1157;65152;-79
2021/01/18 02:13:29;;;;;;;33.03;12.03;;;;;;;1.40;93.28;101302.64;118991;1157;65073;-81
2021/01/18 02:16:09;;;;;;;18.00;6.35;;;;;;;1.48;94.03;101312.58;118659;1157;65073;-83
2021/01/18 02:18:45;;;;;;;19.93;8.67;;;;;;;1.54;93.78;101306.11;118869;1157;65272;-80
2021/01/18 02:21:23;;;;;;;35.73;11.33;;;;;;;1.59;93.71;101304.02;118974;1157;65166;-83
2021/01/18 02:24:20;;;;;;;16.93;6.50;;;;;;;1.65;93.77;101313.24;119132;1157;65104;-82
2021/01/18 02:26:57;;;;;;;23.80;8.40;;;;;;;1.68;93.83;101307.80;119146;1157;65054;-81
2021/01/18 02:30:20;;;;;;;31.90;11.10;;;;;;;1.71;93.50;101310.22;119075;1156;65089;-83
2021/01/18 02:33:05;;;;;;;20.77;7.00;;;;;;;1.73;93.81;101310.96;118809;1157;63992;-82
2021/01/18 02:35:50;;;;;;;10.57;4.37;;;;;;;1.74;93.94;101302.16;118964;1157;65185;-82
2021/01/18 02:38:51;;;;;;;17.00;7.03;;;;;;;1.75;94.02;101304.68;119361;1157;65149;-83
2021/01/18 02:41:37;;;;;;;16.00;6.10;;;;;;;1.78;94.11;101314.92;119202;1156;65107;-82
2021/01/18 02:44:09;;;;;;;9.80;4.77;;;;;;;1.80;94.18;101312.22;118703;1156;66286;-84
2021/01/18 02:46:37;;;;;;;10.87;4.93;;;;;;;1.80;94.37;101304.36;118747;1157;65127;-82
2021/01/18 02:49:05;;;;;;;11.10;4.90;;;;;;;1.81;94.20;101309.50;119042;1157;65280;-84
2021/01/18 02:51:37;;;;;;;22.57;6.27;;;;;;;1.85;94.04;101307.53;118936;1157;65136;-82
2021/01/18 02:54:05;;;;;;;9.63;4.50;;;;;;;1.87;93.71;101308.27;119369;1157;65127;-84
2021/01/18 02:56:33;;;;;;;22.53;8.77;;;;;;;1.90;93.82;101302.81;118868;1156;65079;-84
2021/01/18 02:59:03;;;;;;;23.73;6.90;;;;;;;1.93;93.75;101291.30;119266;1157;65087;-84
2021/01/18 03:01:50;;;;;;;17.67;5.60;;;;;;;1.95;93.63;101287.63;119202;1156;65359;-87
2021/01/18 03:04:36;;;;;;;11.03;5.27;;;;;;;1.97;93.42;101292.77;119353;1157;65293;-84
2021/01/18 03:07:15;;;;;;;23.65;8.60;;;;;;;2.01;93.36;101289.83;119071;1157;65268;-84
2021/01/18 03:10:11;;;;;;;15.15;5.80;;;;;;;2.05;93.18;101290.47;119207;1157;63170;-84
2021/01/18 03:12:48;;;;;;;16.93;6.33;;;;;;;2.06;92.88;101289.50;118987;1157;65018;-83
2021/01/18 03:15:15;;;;;;;17.67;6.70;;;;;;;2.08;93.13;101285.00;119481;1156;63145;-83
2021/01/18 03:17:44;;;;;;;21.45;5.50;;;;;;;2.11;92.80;101289.22;118959;1157;66234;-85
2021/01/18 03:20:14;;;;;;;11.10;5.20;;;;;;;2.14;92.46;101299.46;119477;1155;63447;-83
2021/01/18 03:22:41;;;;;;;12.57;4.63;;;;;;;2.18;92.51;101290.45;118806;1157;65124;-83
2021/01/18 03:25:09;;;;;;;15.30;4.77;;;;;;;2.21;91.94;101290.23;119182;1157;65114;-82
2021/01/18 03:27:52;;;;;;;20.50;4.80;;;;;;;2.24;91.94;101295.27;119020;1157;65178;-84
2021/01/18 03:30:23;;;;;;;18.53;5.50;;;;;;;2.25;91.84;101304.78;119193;1157;65103;-84
2021/01/18 03:32:55;;;;;;;18.80;6.37;;;;;;;2.28;91.96;101307.20;118965;1156;65165;-83
2021/01/18 03:35:22;;;;;;;16.00;5.25;;;;;;;2.29;91.99;101301.02;119170;1157;62906;-85
2021/01/18 03:37:54;;;;;;;16.43;5.37;;;;;;;2.30;91.74;101297.47;119113;1156;63844;-84
2021/01/18 03:40:22;;;;;;;14.70;5.63;;;;;;;2.31;91.58;101290.45;119013;1157;65232;-85
2021/01/18 03:42:57;;;;;;;11.30;3.97;;;;;;;2.34;91.37;101291.08;119929;1156;66306;-84
2021/01/18 03:45:29;;;;;;;17.87;4.70;;;;;;;2.37;91.43;101290.02;118908;1157;63936;-83
2021/01/18 03:47:56;;;;;;;22.60;6.17;;;;;;;2.36;91.45;101299.66;119015;1157;65053;-83
2021/01/18 03:50:23;;;;;;;19.93;4.77;;;;;;;2.35;91.42;101292.73;118829;1156;65236;-83
2021/01/18 03:52:53;;;;;;;4.90;2.30;;;;;;;2.37;91.59;101295.26;119112;1157;65053;-84
2021/01/18 03:55:20;;;;;;;14.93;5.00;;;;;;;2.39;91.28;101294.20;118943;1157;65291;-83
2021/01/18 03:57:53;;;;;;;13.50;5.90;;;;;;;2.40;91.07;101295.89;119674;1156;65114;-83
2021/01/18 04:00:25;;;;;;;15.73;4.40;;;;;;;2.42;91.69;101304.48;118927;1157;65100;-83
2021/01/18 04:02:52;;;;;;;9.87;3.53;;;;;;;2.43;90.94;101298.28;118822;1157;65063;-83
2021/01/18 04:05:20;;;;;;;21.90;5.60;;;;;;;2.44;91.41;101294.73;118867;1157;65254;-85
2021/01/18 04:07:48;;;;;;;15.60;4.00;;;;;;;2.45;91.27;101304.25;118931;1157;65021;-85
2021/01/18 04:10:28;;;;;;;15.47;4.83;;;;;;;2.47;90.96;101301.53;119002;1157;65129;-84
2021/01/18 04:12:57;;;;;;;14.23;4.97;;;;;;;2.49;91.34;101296.16;119239;1157;65226;-88
2021/01/18 04:15:25;;;;;;;10.40;2.43;;;;;;;2.50;90.79;101298.68;119127;1157;65066;-83
2021/01/18 04:17:54;;;;;;;14.53;3.23;;;;;;;2.52;91.14;101298.58;119156;1157;65137;-83
2021/01/18 04:20:21;;;;;;;10.05;2.85;;;;;;;2.54;90.55;101296.70;119065;1157;65126;-83
2021/01/18 04:22:53;;;;;;;11.10;2.70;;;;;;;2.53;91.04;101295.00;118952;1157;66219;-82
2021/01/18 04:25:22;;;;;;;22.03;4.83;;;;;;;2.54;90.26;101289.67;118915;1157;65120;-85
2021/01/18 04:27:51;;;;;;;16.35;3.70;;;;;;;2.56;90.28;101286.95;119391;1156;65070;-83
2021/01/18 04:30:20;;;;;;;16.90;3.50;;;;;;;2.57;91.09;101297.33;119110;1157;65041;-83
2021/01/18 04:33:03;;;;;;;7.20;2.57;;;;;;;2.59;90.37;101289.34;119030;1157;65127;-84
2021/01/18 04:35:31;;;;;;;8.27;3.40;;;;;;;2.61;90.23;101297.92;118819;1157;65140;-83
2021/01/18 04:37:58;;;;;;;12.23;2.63;;;;;;;2.61;89.58;101287.45;118968;1157;65185;-83
2021/01/18 04:40:28;;;;;;;26.13;3.70;;;;;;;2.62;89.55;101294.37;118996;1156;65228;-84
2021/01/18 04:42:55;;;;;;;6.17;1.67;;;;;;;2.63;89.40;101293.41;118657;1157;65204;-83
2021/01/18 04:45:25;;;;;;;17.47;2.93;;;;;;;2.63;89.91;101296.86;118993;1157;65117;-83
2021/01/18 04:47:56;;;;;;;9.17;3.23;;;;;;;2.67;88.96;101292.25;118807;1156;65110;-84
2021/01/18 04:50:27;;;;;;;11.53;2.10;;;;;;;2.67;89.19;101304.52;118783;1157;66050;-83
2021/01/18 04:53:02;;;;;;;8.60;2.20;;;;;;;2.65;89.13;101296.77;119275;1156;65220;-84
2021/01/18 04:55:43;;;;;;;19.63;4.10;;;;;;;2.65;89.13;101299.38;119092;1157;62932;-84
2021/01/18 04:58:18;;;;;;;7.65;2.60;;;;;;;2.63;89.29;101291.63;119269;1156;65053;-83
2021/01/18 05:00:50;;;;;;;22.13;2.57;;;;;;;2.63;89.13;101291.63;119099;1157;65237;-84
2021/01/18 05:03:18;;;;;;;10.60;2.83;;;;;;;2.64;89.01;101302.97;118969;1157;65127;-85
2021/01/18 05:05:51;;;;;;;13.97;3.13;;;;;;;2.65;88.80;101300.21;119315;1157;65159;-84
2021/01/18 05:09:11;;;;;;;16.03;3.53;;;;;;;2.64;88.77;101298.55;119210;1156;65219;-83
2021/01/18 05:11:38;;;;;;;14.67;3.07;;;;;;;2.64;88.46;101308.20;118730;1160;65255;-84
2021/01/18 05:14:05;;;;;;;13.37;3.00;;;;;;;2.63;88.68;101296.86;119048;1156;65205;-84
2021/01/18 05:16:36;;;;;;;13.47;3.03;;;;;;;2.63;88.66;101285.56;119024;1157;65023;-82
2021/01/18 05:19:09;;;;;;;14.00;3.40;;;;;;;2.59;88.68;101291.95;118857;1157;65130;-84
2021/01/18 05:21:40;;;;;;;15.95;5.05;;;;;;;2.57;88.91;101288.61;119451;1157;65127;-84
2021/01/18 05:24:07;;;;;;;11.53;3.07;;;;;;;2.52;88.77;101288.11;119119;1156;65167;-84
2021/01/18 05:26:36;;;;;;;11.13;3.50;;;;;;;2.49;88.90;101293.55;118921;1157;66095;-84
2021/01/18 05:29:04;;;;;;;18.57;4.47;;;;;;;2.46;89.01;101305.08;119232;1157;65124;-83
2021/01/18 05:31:33;;;;;;;14.35;3.60;;;;;;;2.45;88.92;101304.25;118871;1157;65060;-83
2021/01/18 05:34:13;;;;;;;11.63;2.63;;;;;;;2.45;89.57;101309.48;118852;1157;65305;-83
2021/01/18 05:36:49;;;;;;;16.93;4.73;;;;;;;2.44;89.57;101307.83;118880;1157;65152;-83
2021/01/18 05:39:22;;;;;;;8.20;2.83;;;;;;;2.45;89.82;101309.48;118761;1156;65264;-83
2021/01/18 05:41:53;;;;;;;18.17;4.77;;;;;;;2.49;89.60;101314.49;119057;1157;65164;-83
2021/01/18 05:44:29;;;;;;;16.20;4.00;;;;;;;2.50;89.18;101310.95;118639;1157;65101;-84
2021/01/18 05:47:04;;;;;;;12.47;3.27;;;;;;;2.50;88.92;101310.95;118780;1157;65188;-84
2021/01/18 05:49:44;;;;;;;;;;;;;;;2.51;89.68;101312.61;119176;1157;65127;-83
2021/01/18 05:52:28;;;;;;;14.83;3.00;;;;;;;2.50;89.11;101311.77;118911;1157;65133;-84
2021/01/18 05:55:19;;;;;;;11.67;3.63;;;;;;;2.54;89.30;101315.03;118816;1157;65303;-83
2021/01/18 05:57:51;;;;;;;7.43;2.80;;;;;;;2.54;89.46;101321.09;118798;1157;65482;-83
2021/01/18 06:00:33;;;;;;;9.40;3.23;;;;;;;2.55;88.89;101312.31;119529;1157;65353;-84
2021/01/18 06:03:08;;;;;;;6.83;3.43;;;;;;;2.53;88.85;101311.58;119037;1157;65165;-86
2021/01/18 06:05:37;;;;;;;15.70;4.35;;;;;;;2.55;88.88;101312.31;119337;1156;65261;-84
2021/01/18 06:08:18;;;;;;;11.77;3.70;;;;;;;2.58;89.33;101324.34;119315;1157;65111;-84
2021/01/18 06:10:51;;;;;;;10.45;3.15;;;;;;;2.59;88.90;101326.87;119464;1157;65136;-84
2021/01/18 06:13:23;;;;;;;17.00;4.37;;;;;;;2.60;89.14;101325.08;118813;1157;65296;-84
2021/01/18 06:16:09;;;;;;;10.40;3.07;;;;;;;2.59;88.75;101323.39;119349;1157;65015;-84
2021/01/18 06:18:41;;;;;;;9.40;2.80;;;;;;;2.58;88.26;101324.34;119143;1156;65207;-84
2021/01/18 06:21:12;;;;;;;14.53;4.53;;;;;;;2.58;88.17;101324.34;118965;1157;65084;-83
2021/01/18 06:23:40;;;;;;;20.50;6.07;;;;;;;2.59;88.21;101331.24;119396;1157;65009;-85
2021/01/18 06:26:09;;;;;;;4.60;2.80;;;;;;;2.57;88.49;101322.66;119786;1157;65117;-83
2021/01/18 06:28:41;;;;;;;10.77;2.90;;;;;;;2.57;88.14;101322.66;118849;1157;65279;-83
2021/01/18 06:31:09;;;;;;;8.23;2.70;;;;;;;2.55;88.00;101324.55;119771;1157;64670;-83
2021/01/18 06:33:47;;;;;;;2.87;1.53;;;;;;;2.53;87.80;101321.19;120095;1157;65098;-83
2021/01/18 06:36:24;;;;;;;9.67;3.03;;;;;;;2.52;88.06;101314.30;118863;1157;65121;-84
2021/01/18 06:38:59;;;;;;;12.10;3.40;;;;;;;2.48;87.59;101324.14;118776;1157;65136;-84
2021/01/18 06:41:26;;;;;;;5.80;2.57;;;;;;;2.40;87.66;101322.08;119163;1157;65159;-82
2021/01/18 06:43:53;;;;;;;6.53;2.47;;;;;;;2.30;87.61;101331.50;119117;1156;65219;-83
2021/01/18 06:46:22;;;;;;;10.13;3.07;;;;;;;2.29;87.79;101327.19;118952;1157;65185;-82
2021/01/18 06:48:51;;;;;;;12.63;3.43;;;;;;;2.25;88.22;101330.96;119622;1157;65101;-84
2021/01/18 06:51:21;;;;;;;11.43;2.03;;;;;;;2.22;87.57;101333.80;119398;1156;65140;-84
2021/01/18 06:53:50;;;;;;;9.07;2.93;;;;;;;2.20;88.15;101343.54;119249;1157;65132;-85
2021/01/18 06:56:22;;;;;;;12.55;3.25;;;;;;;2.19;88.36;101347.08;120084;1157;62770;-86
2021/01/18 06:58:51;;;;;;;9.03;3.60;;;;;;;2.15;88.13;101346.48;119404;1157;65028;-86
2021/01/18 07:01:27;;;;;;;9.77;3.30;;;;;;;2.16;88.10;101344.69;119897;1157;66146;-83
2021/01/18 07:04:17;;;;;;;14.40;3.57;;;;;;;2.18;88.67;101348.05;119565;1156;65079;-85
2021/01/18 07:06:45;;;;;;;9.17;2.53;;;;;;;2.20;88.55;101351.39;119369;1156;65559;-88
2021/01/18 07:09:14;;;;;;;19.17;3.30;;;;;;;2.22;88.42;101360.81;119309;1157;65291;-83
2021/01/18 07:12:02;;;;;;;9.70;3.17;;;;;;;2.24;88.20;101356.31;119085;1157;66164;-86
2021/01/18 07:14:30;;;;;;;14.63;3.53;;;;;;;2.25;88.05;101349.28;119505;1157;65500;-83
2021/01/18 07:17:06;;;;;;;10.07;2.67;;;;;;;2.28;88.38;101343.03;119269;1157;65278;-87
2021/01/18 07:19:49;;;;;;;6.40;2.90;;;;;;;2.26;87.83;101340.51;119301;1157;65276;-84
2021/01/18 07:22:40;;;;;;;11.43;3.53;;;;;;;2.25;88.17;101338.81;119302;1157;65114;-83
2021/01/18 07:25:33;;;;;;;9.40;3.27;;;;;;;2.21;88.19;101347.81;118881;1157;65127;-84
2021/01/18 07:28:02;;;;;;;10.83;2.73;;;;;;;2.18;88.01;101343.64;118903;1157;65191;-83
2021/01/18 07:30:36;;;;;;;11.27;3.20;;;;;;;2.17;87.93;101335.91;119127;1157;65153;-85
2021/01/18 07:33:12;;;;;;;15.88;3.37;;;;;;;2.15;87.66;101332.56;119328;1157;65130;-87
2021/01/18 07:35:41;;;;;;;8.10;3.63;;;;;;;2.12;87.67;101335.37;119356;1157;65101;-87
2021/01/18 07:38:21;;;;;;;8.15;2.50;;;;;;;2.09;87.54;101348.67;119264;1157;65132;-84
2021/01/18 07:41:06;;;;;;;5.20;1.77;;;;;;;2.04;87.98;101347.20;119654;1157;65667;-85
2021/01/18 07:43:33;;;;;;;;;;;;;;;2.02;87.65;101348.26;119773;1157;64980;-88
2021/01/18 07:46:24;;;;;;;5.50;2.43;;;;;;;1.99;87.95;101348.45;119793;1157;65108;-83
2021/01/18 07:48:52;;;;;;;11.60;3.47;;;;;;;1.99;87.76;101349.28;119639;1155;65133;-84
2021/01/18 07:51:20;;;;;;;8.50;2.53;;;;;;;1.99;88.16;101354.51;119514;1157;65135;-85
2021/01/18 07:53:47;;;;;;;6.07;2.30;;;;;;;2.01;87.91;101357.86;119011;1157;65223;-82
2021/01/18 07:56:27;;;;;;;5.30;2.80;;;;;;;2.03;88.00;101357.77;118923;1157;65257;-80
2021/01/18 07:58:56;;;;;;;5.57;1.83;;;;;;;2.08;88.06;101367.92;119215;1157;65022;-81
2021/01/18 08:01:28;;;;;;;10.23;3.67;;;;;;;2.15;87.75;101361.35;118974;1157;65140;-80
2021/01/18 08:04:17;;;;;;;13.23;3.70;;;;;;;2.22;87.84;101362.59;118844;1157;65019;-80
2021/01/18 08:07:06;;;;;;;6.70;3.30;;;;;;;2.29;87.31;101357.78;119111;1157;65134;-83
2021/01/18 08:09:34;;;;;;;8.23;2.80;;;;;;;2.34;87.45;101348.67;118764;1157;65258;-81
2021/01/18 08:12:28;;;;;;;6.87;3.60;;;;;;;2.37;87.19;101358.92;118808;1157;64922;-82
2021/01/18 08:14:56;;;;;;;6.43;3.10;;;;;;;2.44;87.51;101356.72;119546;1156;65130;-82
2021/01/18 08:17:22;;;;;;;6.37;2.83;;;;;;;2.52;87.15;101366.67;118874;1157;65196;-80
2021/01/18 08:20:22;;;;;;;9.67;3.53;;;;;;;2.59;86.81;101358.30;119059;1157;65111;-82
2021/01/18 08:22:49;;;;;;;9.83;3.77;;;;;;;2.65;86.17;101360.46;118855;1157;65111;-83
2021/01/18 08:25:15;;;;;;;8.57;2.50;;;;;;;2.74;87.01;101355.52;118938;1157;65825;-81
2021/01/18 08:27:55;;;;;;;9.23;3.90;;;;;;;2.79;86.67;101356.06;118907;1157;65226;-80
2021/01/18 08:30:29;;;;;;;4.97;2.80;;;;;;;2.85;86.56;101347.77;119224;1157;65136;-83
2021/01/18 08:33:00;;;;;;;8.27;2.50;;;;;;;2.87;85.64;101345.87;118706;1157;63515;-83
2021/01/18 08:35:32;;;;;;;11.57;4.93;;;;;;;2.89;86.18;101353.61;119104;1157;65156;-83
2021/01/18 08:38:06;;;;;;;6.20;2.53;;;;;;;2.86;85.42;101339.77;119174;1157;65124;-81
2021/01/18 08:40:43;;;;;;;8.13;3.37;;;;;;;2.88;85.58;101351.95;118893;1157;66299;-80
2021/01/18 08:43:12;;;;;;;8.80;3.55;;;;;;;2.90;85.67;101344.81;119042;1157;63247;-81
2021/01/18 08:45:46;;;;;;;8.07;4.23;;;;;;;2.92;85.51;101335.06;118705;1157;65220;-83
2021/01/18 08:48:14;;;;;;;6.30;3.80;;;;;;;2.95;86.05;101346.14;119315;1157;65219;-83
2021/01/18 08:50:41;;;;;;;9.17;3.57;;;;;;;2.98;85.49;101345.11;119568;1157;65184;-82
2021/01/18 08:53:46;;;;;;;4.57;2.63;;;;;;;2.97;85.32;101336.39;119531;1157;65130;-84
2021/01/18 08:56:25;;;;;;;12.37;3.47;;;;;;;2.99;85.10;101338.91;119407;1157;62927;-83
2021/01/18 08:58:51;;;;;;;11.53;4.47;;;;;;;3.02;84.57;101339.53;119801;1157;65063;-81
2021/01/18 09:01:26;;;;;;;10.17;3.63;;;;;;;3.07;84.10;101336.58;119643;1157;65194;-82
2021/01/18 09:04:00;;;;;;;7.70;4.30;;;;;;;3.10;83.90;101341.59;119113;1157;65127;-84
2021/01/18 09:06:27;;;;;;;6.95;3.35;;;;;;;3.14;84.01;101337.80;119258;1157;65140;-82
2021/01/18 09:09:08;;;;;;;13.33;3.77;;;;;;;3.17;84.22;101342.84;118985;1157;65134;-80
2021/01/18 09:11:35;;;;;;;8.13;3.47;;;;;;;3.22;84.08;101335.46;118835;1157;65036;-82
2021/01/18 09:14:04;;;;;;;9.70;4.53;;;;;;;3.30;83.71;101332.30;118852;1157;65178;-83
2021/01/18 09:16:30;;;;;;;8.13;3.20;;;;;;;3.39;82.92;101341.27;118779;1157;65133;-79
2021/01/18 09:19:06;;;;;;;7.73;4.03;;;;;;;3.46;82.50;101337.23;119147;1157;65105;-83
2021/01/18 09:21:34;;;;;;;7.60;4.60;;;;;;;3.51;82.49;101334.27;118705;1157;65139;-81
2021/01/18 09:24:07;;;;;;;8.80;3.40;;;;;;;3.55;82.76;101331.33;119367;1157;65069;-83
2021/01/18 09:26:34;;;;;;;8.40;4.00;;;;;;;3.57;82.23;101332.06;118826;1157;65168;-83
2021/01/18 09:29:00;;;;;;;7.53;3.67;;;;;;;3.60;82.86;101329.19;118984;1157;63880;-81
2021/01/18 09:31:26;;;;;;;11.53;4.92;;;;;;;3.61;82.93;101330.88;118990;1157;65083;-83
2021/01/18 09:33:53;;;;;;;7.53;3.60;;;;;;;3.60;82.08;101326.56;118895;1157;65111;-82
2021/01/18 09:36:23;;;;;;;7.53;3.50;;;;;;;3.60;81.90;101339.69;119247;1157;65219;-81
2021/01/18 09:38:49;;;;;;;8.17;3.93;;;;;;;3.63;82.58;101328.98;119554;1157;65139;-81
2021/01/18 09:41:16;;;;;;;11.17;3.63;;;;;;;3.65;81.55;101337.55;119315;1157;65015;-81
2021/01/18 09:43:44;;;;;;;14.00;4.73;;;;;;;3.67;81.53;101335.64;119323;1157;65128;-83
2021/01/18 09:46:11;;;;;;;8.33;4.50;;;;;;;3.68;82.25;101332.09;119133;1157;65139;-82
2021/01/18 09:48:38;;;;;;;8.80;4.65;;;;;;;3.68;81.77;101326.01;119146;1157;65101;-83
2021/01/18 09:51:07;;;;;;;8.40;4.40;;;;;;;3.67;82.30;101330.40;119219;1157;65133;-81
2021/01/18 09:53:34;;;;;;;9.20;4.43;;;;;;;3.68;81.79;101318.14;119065;1156;65859;-81
2021/01/18 09:56:03;;;;;;;16.07;5.43;;;;;;;3.71;82.08;101311.81;118772;1157;65200;-83
2021/01/18 09:58:36;;;;;;;10.83;4.03;;;;;;;3.75;83.53;101321.96;118819;1157;65074;-83
2021/01/18 10:01:12;;;;;;;15.93;4.03;;;;;;;3.75;82.68;101323.76;118657;1157;65151;-80
2021/01/18 10:03:40;;;;;;;10.15;5.40;;;;;;;3.76;82.09;101312.30;119168;1157;65284;-81
2021/01/18 10:06:10;;;;;;;8.35;5.10;;;;;;;3.78;82.24;101306.00;119370;1157;65172;-81
2021/01/18 10:08:40;;;;;;;7.30;3.93;;;;;;;3.86;82.64;101305.41;119246;1157;65159;-83
2021/01/18 10:11:07;;;;;;;13.07;5.87;;;;;;;3.96;82.77;101311.63;121441;1156;62925;-80
2021/01/18 10:13:34;;;;;;;12.83;5.40;;;;;;;4.04;82.22;101311.89;118644;1157;65459;-84
2021/01/18 10:16:11;;;;;;;7.65;4.10;;;;;;;4.08;81.41;101302.00;119000;1157;63344;-80
2021/01/18 10:18:48;;;;;;;8.03;3.87;;;;;;;4.16;82.12;101311.89;119251;1157;65145;-82
2021/01/18 10:21:18;;;;;;;10.73;5.43;;;;;;;4.21;80.36;101294.02;119444;1157;65095;-81
2021/01/18 10:23:48;;;;;;;14.23;5.57;;;;;;;4.29;81.09;101295.09;119080;1157;65217;-84
2021/01/18 10:26:15;;;;;;;10.73;5.20;;;;;;;4.31;80.16;101300.20;119121;1157;65880;-81
2021/01/18 10:29:00;;;;;;;15.90;6.55;;;;;;;4.36;80.22;101290.19;118989;1157;65267;-79
2021/01/18 10:31:31;;;;;;;11.75;5.25;;;;;;;4.36;80.35;101291.98;119031;1157;65712;-83
2021/01/18 10:34:15;;;;;;;11.55;5.50;;;;;;;4.34;79.93;101289.47;118665;1157;65191;-79
2021/01/18 10:36:44;;;;;;;8.27;5.00;;;;;;;4.31;79.88;101278.36;118339;1157;65187;-82
2021/01/18 10:39:27;;;;;;;8.03;5.67;;;;;;;4.20;80.72;101282.65;118820;1157;66505;-81
2021/01/18 10:42:13;;;;;;;13.57;6.33;;;;;;;4.18;81.77;101271.42;119089;1156;65520;-81
2021/01/18 10:44:55;;;;;;;21.17;6.50;;;;;;;4.18;80.72;101273.22;119022;1157;66368;-81
2021/01/18 10:47:28;;;;;;;12.90;5.77;;;;;;;4.15;80.84;101270.85;118788;1157;65085;-81
2021/01/18 10:49:59;;;;;;;12.17;5.47;;;;;;;4.14;81.41;101266.54;118571;1157;62660;-79
2021/01/18 10:52:39;;;;;;;8.13;3.83;;;;;;;4.08;82.83;101265.24;118854;1155;65098;-79
2021/01/18 10:55:06;;;;;;;11.27;5.47;;;;;;;4.05;81.55;101266.29;118999;1157;65107;-78
2021/01/18 10:57:45;;;;;;;16.60;8.03;;;;;;;4.04;83.10;101262.01;118616;1157;65252;-77
2021/01/18 11:00:16;;;;;;;15.40;8.23;;;;;;;4.03;83.42;101254.24;118776;1157;65168;-80
2021/01/18 11:02:53;;;;;;;16.07;6.97;;;;;;;4.00;82.64;101257.12;118688;1157;65178;-81
2021/01/18 11:05:26;;;;;;;12.57;6.17;;;;;;;3.99;83.72;101261.52;118254;1157;65255;-79
2021/01/18 11:07:52;;;;;;;12.20;5.30;;;;;;;3.99;82.41;101247.55;118653;1157;65226;-78
2021/01/18 11:10:23;;;;;;;19.87;8.30;;;;;;;3.98;82.79;101249.35;118892;1157;65138;-80
2021/01/18 11:13:06;;;;;;;14.17;6.53;;;;;;;3.97;82.81;101245.05;119052;1157;65230;-78
2021/01/18 11:15:36;;;;;;;15.90;8.83;;;;;;;3.96;83.56;101238.14;119200;1157;65118;-78
2021/01/18 11:18:05;;;;;;;12.63;6.20;;;;;;;3.98;82.40;101238.85;119102;1157;63928;-78
2021/01/18 11:20:32;;;;;;;15.57;7.07;;;;;;;4.02;83.51;101245.54;118885;1157;65220;-81
2021/01/18 11:22:58;;;;;;;19.20;8.77;;;;;;;4.11;82.71;101232.66;119350;1157;65098;-81
2021/01/18 11:25:24;;;;;;;13.35;7.65;;;;;;;4.14;82.16;101227.15;118827;1157;65117;-77
2021/01/18 11:27:50;;;;;;;19.10;7.10;;;;;;;4.14;81.63;101222.73;118486;1156;65287;-80
2021/01/18 11:30:19;;;;;;;23.43;8.67;;;;;;;4.17;81.61;101227.75;118807;1157;65153;-80
2021/01/18 11:32:45;;;;;;;18.10;8.00;;;;;;;4.20;81.72;101234.55;118930;1157;64722;-79
2021/01/18 11:35:13;;;;;;;13.80;7.60;;;;;;;4.19;81.84;101219.77;118627;1157;65135;-78
2021/01/18 11:38:02;;;;;;;16.75;8.15;;;;;;;4.19;81.81;101214.52;118953;1157;65133;-84
2021/01/18 11:40:28;;;;;;;18.40;8.50;;;;;;;4.16;81.79;101215.56;118921;1157;63867;-80
2021/01/18 11:42:59;;;;;;;18.30;8.27;;;;;;;4.15;81.80;101203.41;118541;1157;65228;-81
2021/01/18 11:45:26;;;;;;;14.73;7.40;;;;;;;4.16;82.65;101204.23;119063;1157;65066;-81